createdAt,value
2023-06-09T00:00:47.317Z,7.43
2023-06-09T00:03:52.393Z,9.82
2023-06-09T00:06:56.226Z,9.73
2023-06-09T00:09:59.130Z,7.67
2023-06-09T00:13:01.844Z,9.30
2023-06-09T00:16:04.630Z,8.40
2023-06-09T00:19:10.463Z,10.70
2023-06-09T00:22:15.212Z,10.23
2023-06-09T00:25:21.587Z,8.30
2023-06-09T00:28:24.600Z,10.13
2023-06-09T00:31:27.351Z,8.38
2023-06-09T00:34:30.245Z,9.32
2023-06-09T00:37:33.055Z,13.27
2023-06-09T00:40:35.825Z,9.37
2023-06-09T00:43:38.520Z,8.30
2023-06-09T00:46:42.067Z,11.73
2023-06-09T00:49:45.218Z,9.13
2023-06-09T00:52:49.571Z,9.35
2023-06-09T00:55:53.075Z,9.87
2023-06-09T00:58:56.144Z,9.67
2023-06-09T01:01:58.736Z,11.38
2023-06-09T01:05:01.859Z,11.25
2023-06-09T01:08:19.527Z,9.52
2023-06-09T01:11:43.210Z,10.13
2023-06-09T01:14:48.392Z,12.97
2023-06-09T01:17:59.808Z,11.20
2023-06-09T01:21:34.009Z,13.93
2023-06-09T01:25:08.127Z,10.25
2023-06-09T01:28:12.973Z,12.67
2023-06-09T01:31:17.414Z,11.53
2023-06-09T01:34:20.134Z,13.25
2023-06-09T01:37:23.201Z,13.80
2023-06-09T01:40:26.798Z,12.65
2023-06-09T01:43:29.435Z,9.57
2023-06-09T01:46:33.244Z,12.10
2023-06-09T01:49:43.847Z,13.85
2023-06-09T01:53:05.590Z,13.23
2023-06-09T01:56:11.098Z,9.75
2023-06-09T01:59:26.038Z,10.00
2023-06-09T02:02:31.489Z,8.00
2023-06-09T02:05:34.816Z,11.10
2023-06-09T02:08:38.506Z,12.45
2023-06-09T02:11:41.568Z,11.95
2023-06-09T02:14:51.871Z,10.17
2023-06-09T02:17:55.488Z,12.97
2023-06-09T02:20:58.165Z,13.07
2023-06-09T02:24:01.006Z,10.75
2023-06-09T02:27:04.722Z,9.77
2023-06-09T02:30:08.886Z,8.57
2023-06-09T02:33:11.918Z,11.50
2023-06-09T02:36:15.183Z,10.70
2023-06-09T02:39:18.588Z,11.20
2023-06-09T02:42:21.323Z,12.90
2023-06-09T02:45:24.110Z,10.43
2023-06-09T02:48:26.733Z,13.47
2023-06-09T02:51:29.391Z,13.77
2023-06-09T02:54:32.431Z,12.93
2023-06-09T02:57:35.141Z,19.15
2023-06-09T03:00:38.302Z,12.03
2023-06-09T03:03:43.517Z,12.47
2023-06-09T03:06:50.124Z,14.38
2023-06-09T03:09:53.917Z,18.77
2023-06-09T03:12:57.876Z,13.35
2023-06-09T03:16:00.638Z,12.50
2023-06-09T03:19:04.230Z,12.90
2023-06-09T03:22:07.195Z,11.43
2023-06-09T03:25:13.617Z,14.50
2023-06-09T03:28:16.675Z,16.48
2023-06-09T03:31:19.963Z,12.67
2023-06-09T03:34:24.403Z,16.67
2023-06-09T03:37:29.471Z,17.25
2023-06-09T03:40:32.352Z,11.32
2023-06-09T03:43:35.999Z,15.63
2023-06-09T03:46:39.264Z,12.87
2023-06-09T03:49:42.131Z,12.03
2023-06-09T03:52:44.796Z,14.73
2023-06-09T03:55:47.659Z,13.30
2023-06-09T03:58:58.093Z,11.40
2023-06-09T04:02:01.623Z,12.43
2023-06-09T04:05:04.736Z,12.87
2023-06-09T04:08:09.305Z,12.35
2023-06-09T04:11:11.995Z,9.55
2023-06-09T04:14:15.271Z,12.50
2023-06-09T04:17:18.341Z,8.67
2023-06-09T04:20:23.954Z,16.47
2023-06-09T04:23:28.954Z,10.23
2023-06-09T04:26:34.036Z,10.23
2023-06-09T04:29:36.942Z,9.65
2023-06-09T04:32:40.320Z,9.27
2023-06-09T04:35:44.461Z,9.97
2023-06-09T04:38:53.243Z,11.63
2023-06-09T04:41:56.349Z,10.55
2023-06-09T04:45:03.528Z,11.30
2023-06-09T04:48:07.322Z,10.63
2023-06-09T04:51:11.698Z,10.33
2023-06-09T04:54:27.031Z,8.50
2023-06-09T04:57:32.304Z,8.32
2023-06-09T05:00:36.691Z,10.10
2023-06-09T05:03:42.085Z,8.63
2023-06-09T05:06:44.932Z,10.30
2023-06-09T05:09:48.764Z,7.75
2023-06-09T05:12:52.029Z,8.38
2023-06-09T05:15:58.949Z,7.60
2023-06-09T05:19:03.153Z,7.87
2023-06-09T05:22:06.417Z,8.50
2023-06-09T05:25:18.471Z,8.35
2023-06-09T05:28:23.421Z,8.45
2023-06-09T05:31:27.526Z,9.50
2023-06-09T05:34:32.395Z,10.30
2023-06-09T05:37:35.229Z,9.50
2023-06-09T05:40:38.324Z,11.93
2023-06-09T05:43:40.948Z,10.57
2023-06-09T05:46:46.334Z,9.07
2023-06-09T05:49:52.375Z,7.10
2023-06-09T05:52:56.622Z,7.93
2023-06-09T05:56:02.889Z,6.15
2023-06-09T05:59:05.872Z,6.70
2023-06-09T06:02:08.665Z,7.93
2023-06-09T06:05:11.899Z,7.83
2023-06-09T06:08:14.619Z,5.30
2023-06-09T06:11:20.279Z,5.80
2023-06-09T06:14:23.154Z,6.97
2023-06-09T06:17:25.811Z,8.85
2023-06-09T06:20:29.627Z,7.00
2023-06-09T06:23:33.138Z,6.90
2023-06-09T06:26:35.944Z,8.15
2023-06-09T06:29:40.352Z,8.75
2023-06-09T06:32:54.225Z,6.55
2023-06-09T06:35:57.761Z,9.20
2023-06-09T06:39:00.669Z,6.50
2023-06-09T06:42:03.680Z,6.03
2023-06-09T06:45:12.911Z,5.57
2023-06-09T06:48:15.806Z,10.40
2023-06-09T06:51:18.718Z,5.77
2023-06-09T06:54:22.250Z,7.23
2023-06-09T06:57:25.201Z,6.60
2023-06-09T07:00:29.403Z,5.47
2023-06-09T07:03:34.616Z,7.47
2023-06-09T07:06:44.188Z,7.60
2023-06-09T07:09:47.369Z,7.00
2023-06-09T07:12:50.463Z,9.10
2023-06-09T07:15:53.497Z,5.78
2023-06-09T07:18:56.469Z,5.95
2023-06-09T07:21:59.386Z,7.07
2023-06-09T07:25:02.298Z,7.87
2023-06-09T07:28:05.278Z,7.75
2023-06-09T07:31:08.382Z,6.13
2023-06-09T07:34:11.826Z,6.85
2023-06-09T07:37:14.804Z,7.70
2023-06-09T07:40:21.775Z,7.20
2023-06-09T07:43:25.025Z,5.88
2023-06-09T07:46:27.910Z,7.95
2023-06-09T07:49:30.840Z,8.23
2023-06-09T07:52:34.764Z,7.10
2023-06-09T07:55:37.614Z,6.67
2023-06-09T07:58:42.716Z,6.47
2023-06-09T08:01:46.931Z,6.10
2023-06-09T08:04:49.978Z,5.25
2023-06-09T08:07:52.902Z,6.37
2023-06-09T08:11:08.535Z,6.10
2023-06-09T08:14:14.424Z,11.40
2023-06-09T08:17:17.424Z,7.70
2023-06-09T08:20:20.541Z,8.13
2023-06-09T08:23:23.639Z,6.30
2023-06-09T08:26:28.993Z,8.37
2023-06-09T08:29:41.297Z,8.82
2023-06-09T08:32:46.383Z,6.93
2023-06-09T08:35:49.276Z,6.13
2023-06-09T08:38:52.253Z,5.17
2023-06-09T08:41:57.998Z,9.87
2023-06-09T08:45:09.381Z,7.15
2023-06-09T08:48:17.454Z,5.57
2023-06-09T08:51:22.910Z,5.38
2023-06-09T08:54:26.562Z,5.77
2023-06-09T08:57:29.585Z,4.70
2023-06-09T09:00:32.996Z,4.95
2023-06-09T09:03:36.019Z,7.25
2023-06-09T09:06:40.536Z,4.63
2023-06-09T09:09:43.362Z,4.67
2023-06-09T09:12:50.128Z,5.90
2023-06-09T09:15:54.144Z,4.72
2023-06-09T09:18:56.868Z,4.38
2023-06-09T09:22:06.867Z,5.60
2023-06-09T09:25:12.667Z,5.83
2023-06-09T09:28:15.505Z,5.37
2023-06-09T09:31:18.328Z,3.97
2023-06-09T09:34:21.255Z,4.50
2023-06-09T09:37:26.149Z,4.38
2023-06-09T09:40:31.316Z,4.10
2023-06-09T09:43:36.798Z,5.63
2023-06-09T09:46:40.888Z,4.95
2023-06-09T09:49:55.153Z,4.00
2023-06-09T09:52:57.947Z,5.32
2023-06-09T09:56:01.872Z,5.37
2023-06-09T09:59:05.007Z,5.90
2023-06-09T10:02:11.504Z,5.00
2023-06-09T10:05:16.313Z,4.10
2023-06-09T10:08:30.273Z,4.55
2023-06-09T10:11:33.396Z,4.90
2023-06-09T10:14:36.145Z,5.23
2023-06-09T10:17:39.322Z,8.48
2023-06-09T10:20:47.801Z,5.60
2023-06-09T10:23:54.364Z,5.50
2023-06-09T10:26:57.658Z,9.20
2023-06-09T10:30:04.936Z,5.20
2023-06-09T10:33:23.418Z,6.28
2023-06-09T10:36:26.210Z,5.00
2023-06-09T10:39:46.014Z,6.50
2023-06-09T10:43:26.722Z,6.40
2023-06-09T10:46:39.968Z,7.17
2023-06-09T10:49:44.350Z,7.25
2023-06-09T10:52:47.142Z,7.10
2023-06-09T10:56:12.380Z,7.32
2023-06-09T10:59:27.419Z,5.90
2023-06-09T11:02:31.699Z,7.23
2023-06-09T11:05:45.159Z,6.68
2023-06-09T11:09:10.928Z,7.30
2023-06-09T11:12:29.352Z,6.70
2023-06-09T11:16:02.685Z,6.80
2023-06-09T11:19:24.801Z,7.67
2023-06-09T11:22:29.116Z,6.70
2023-06-09T11:25:31.910Z,8.07
2023-06-09T11:28:41.424Z,10.85
2023-06-09T11:31:49.577Z,6.80
2023-06-09T11:34:59.825Z,8.13
2023-06-09T11:38:08.863Z,7.90
2023-06-09T11:41:15.777Z,7.35
2023-06-09T11:47:47.031Z,8.17
2023-06-09T11:50:57.825Z,7.87
2023-06-09T11:55:01.987Z,13.02
2023-06-09T11:58:19.041Z,6.57
2023-06-09T12:01:47.736Z,6.65
2023-06-09T12:05:13.530Z,8.20
2023-06-09T12:08:20.204Z,6.50
2023-06-09T12:11:30.653Z,7.00
2023-06-09T12:14:37.539Z,6.85
2023-06-09T12:17:41.718Z,5.70
2023-06-09T12:20:56.586Z,5.90
2023-06-09T12:24:02.790Z,5.87
2023-06-09T12:27:13.308Z,5.75
2023-06-09T12:30:45.466Z,6.93
2023-06-09T12:33:50.376Z,16.23
2023-06-09T12:36:54.051Z,5.47
2023-06-09T12:40:10.428Z,35.93
2023-06-09T12:47:00.980Z,6.28
2023-06-09T12:50:14.039Z,7.68
2023-06-09T12:53:17.473Z,6.33
2023-06-09T12:56:25.293Z,5.70
2023-06-09T12:59:28.054Z,9.30
2023-06-09T13:02:31.205Z,9.25
2023-06-09T13:05:34.232Z,5.57
2023-06-09T13:08:37.288Z,6.10
2023-06-09T13:11:40.245Z,5.63
2023-06-09T13:14:43.140Z,6.95
2023-06-09T13:17:46.455Z,6.35
2023-06-09T13:20:49.467Z,5.75
2023-06-09T13:23:52.327Z,4.60
2023-06-09T13:26:57.147Z,5.30
2023-06-09T13:30:01.529Z,4.90
2023-06-09T13:33:04.902Z,4.60
2023-06-09T13:36:07.938Z,4.88
2023-06-09T13:39:11.206Z,5.50
2023-06-09T13:42:24.612Z,4.70
2023-06-09T13:45:34.783Z,5.07
2023-06-09T13:48:42.166Z,5.10
2023-06-09T13:51:48.041Z,5.57
2023-06-09T13:54:51.209Z,5.60
2023-06-09T13:57:54.225Z,6.43
2023-06-09T14:05:10.798Z,5.82
2023-06-09T14:08:13.954Z,5.97
2023-06-09T14:11:22.929Z,5.83
2023-06-09T14:14:26.464Z,7.30
2023-06-09T15:28:32.081Z,6.60
2023-06-09T15:31:49.663Z,7.07
2023-06-09T15:34:53.153Z,6.32
2023-06-09T15:38:04.520Z,6.28
2023-06-09T15:41:10.962Z,5.85
2023-06-09T15:44:14.066Z,7.30
2023-06-09T15:47:17.400Z,5.97
2023-06-09T15:50:20.515Z,7.78
2023-06-09T15:53:23.757Z,7.43
2023-06-09T15:56:29.890Z,5.50
2023-06-09T15:59:33.465Z,5.87
2023-06-09T16:02:36.466Z,5.80
2023-06-09T16:05:40.959Z,5.80
2023-06-09T16:08:44.541Z,8.93
2023-06-09T16:11:47.713Z,8.65
2023-06-09T16:14:51.211Z,7.17
2023-06-09T16:17:54.276Z,6.83
2023-06-09T16:20:58.153Z,6.65
2023-06-09T16:24:01.176Z,7.75
2023-06-09T16:27:08.162Z,9.35
2023-06-09T16:30:11.839Z,6.93
2023-06-09T16:33:17.897Z,6.83
2023-06-09T16:36:21.581Z,5.80
2023-06-09T16:39:24.760Z,36.78
2023-06-09T16:42:27.748Z,7.78
2023-06-09T16:45:30.844Z,8.50
2023-06-09T16:48:35.552Z,7.20
2023-06-09T16:51:38.657Z,7.35
2023-06-09T16:54:41.696Z,6.43
2023-06-09T16:57:44.997Z,8.43
2023-06-09T17:00:48.049Z,6.00
2023-06-09T17:03:53.986Z,6.70
2023-06-09T17:06:57.502Z,7.35
2023-06-09T17:10:00.361Z,11.23
2023-06-09T17:13:03.648Z,6.00
2023-06-09T17:16:06.764Z,6.13
2023-06-09T17:19:12.940Z,6.33
2023-06-09T17:22:15.873Z,6.05
2023-06-09T17:25:19.278Z,6.57
2023-06-09T17:28:22.371Z,6.80
2023-06-09T17:31:25.392Z,8.43
2023-06-09T17:34:28.490Z,8.80
2023-06-09T17:37:32.185Z,12.52
2023-06-09T17:40:35.162Z,7.28
2023-06-09T17:43:38.202Z,6.82
2023-06-09T17:46:41.323Z,8.10
2023-06-09T17:49:44.486Z,7.73
2023-06-09T17:52:47.914Z,8.50
2023-06-09T17:55:51.218Z,20.23
2023-06-09T17:58:54.269Z,8.98
2023-06-09T18:01:57.555Z,11.30
2023-06-09T18:05:00.912Z,12.73
2023-06-09T18:08:03.994Z,9.90
2023-06-09T18:11:07.142Z,7.97
2023-06-09T18:14:10.299Z,7.15
2023-06-09T18:17:13.317Z,12.80
2023-06-09T18:20:16.529Z,8.23
2023-06-09T18:23:19.613Z,10.50
2023-06-09T18:26:22.512Z,11.15
2023-06-09T18:29:26.151Z,12.38
2023-06-09T18:32:32.161Z,12.30
2023-06-09T18:35:35.125Z,10.87
2023-06-09T18:38:38.028Z,10.48
2023-06-09T18:41:41.065Z,9.63
2023-06-09T18:44:44.089Z,9.65
2023-06-09T18:47:47.069Z,10.30
2023-06-09T18:50:49.975Z,11.50
2023-06-09T18:53:54.218Z,10.13
2023-06-09T18:56:57.157Z,10.57
2023-06-09T19:00:00.488Z,12.48
2023-06-09T19:03:04.402Z,10.63
2023-06-09T19:06:07.986Z,15.07
2023-06-09T19:09:11.435Z,17.23
2023-06-09T19:12:14.482Z,14.27
2023-06-09T19:15:17.756Z,15.35
2023-06-09T19:18:20.865Z,15.40
2023-06-09T19:21:23.865Z,12.07
2023-06-09T19:24:27.318Z,13.65
2023-06-09T19:27:30.216Z,16.45
2023-06-09T19:30:35.022Z,15.30
2023-06-09T19:33:38.215Z,20.77
2023-06-09T19:36:41.508Z,18.47
2023-06-09T19:39:44.556Z,12.85
2023-06-09T19:42:47.609Z,18.10
2023-06-09T19:45:50.629Z,14.52
2023-06-09T19:48:53.502Z,17.57
2023-06-09T19:51:56.479Z,16.53
2023-06-09T19:54:59.629Z,18.35
2023-06-09T19:58:04.403Z,18.02
2023-06-09T20:01:07.266Z,16.55
2023-06-09T20:04:10.327Z,15.93
2023-06-09T20:07:13.499Z,16.63
2023-06-09T20:10:16.817Z,16.52
2023-06-09T20:13:19.826Z,15.82
2023-06-09T20:16:23.772Z,20.90
2023-06-09T20:19:26.802Z,19.73
2023-06-09T20:22:29.890Z,21.40
2023-06-09T20:25:33.409Z,21.83
2023-06-09T20:28:36.555Z,16.65
2023-06-09T20:31:39.680Z,19.60
2023-06-09T20:34:42.978Z,18.03
2023-06-09T20:37:45.739Z,16.10
2023-06-09T20:40:48.537Z,18.38
2023-06-09T20:43:51.556Z,15.80
2023-06-09T20:46:54.538Z,19.08
2023-06-09T20:50:01.606Z,22.37
2023-06-09T20:53:04.534Z,18.27
2023-06-09T20:56:08.209Z,18.17
2023-06-09T20:59:11.868Z,19.92
2023-06-09T21:02:14.977Z,20.17
2023-06-09T21:05:18.129Z,18.13
2023-06-09T21:08:22.142Z,22.03
2023-06-09T21:11:25.790Z,21.85
2023-06-09T21:14:28.863Z,22.58
2023-06-09T21:17:31.747Z,23.23
2023-06-09T21:20:34.842Z,19.83
2023-06-09T21:23:38.449Z,20.93
2023-06-09T21:26:41.741Z,27.27
2023-06-09T21:29:44.733Z,25.48
2023-06-09T21:32:47.740Z,26.35
2023-06-09T21:35:50.553Z,24.60
2023-06-09T21:38:56.722Z,24.97
2023-06-09T21:41:59.635Z,28.13
2023-06-09T21:45:02.471Z,26.05
2023-06-09T21:48:05.481Z,21.83
2023-06-09T21:51:08.273Z,25.80
2023-06-09T21:54:11.263Z,22.87
2023-06-09T21:57:14.147Z,26.50
2023-06-09T22:00:17.922Z,23.58
2023-06-09T22:03:20.767Z,27.55
2023-06-09T22:06:23.732Z,24.50
2023-06-09T22:09:26.694Z,26.00
2023-06-09T22:12:39.526Z,27.38
2023-06-09T22:15:42.824Z,29.25
2023-06-09T22:18:47.607Z,32.75
2023-06-09T22:21:50.677Z,33.73
2023-06-09T22:24:53.455Z,33.07
2023-06-09T22:27:56.528Z,34.20
2023-06-09T22:30:59.418Z,36.10
2023-06-09T22:34:02.332Z,30.10
2023-06-09T22:37:05.424Z,39.93
2023-06-09T22:40:09.651Z,36.83
2023-06-09T22:43:12.520Z,38.33
2023-06-09T22:46:15.503Z,37.33
2023-06-09T22:49:22.536Z,51.17
2023-06-09T22:52:25.501Z,39.23
2023-06-09T22:55:28.515Z,38.50
2023-06-09T22:58:34.851Z,44.95
2023-06-09T23:01:37.935Z,36.35
2023-06-09T23:04:43.150Z,34.45
2023-06-09T23:07:45.910Z,37.87
2023-06-09T23:10:48.946Z,35.67
2023-06-09T23:13:51.844Z,29.98
2023-06-09T23:16:56.640Z,30.10
2023-06-09T23:20:01.481Z,26.48
2023-06-09T23:23:04.462Z,27.40
2023-06-09T23:26:07.526Z,34.77
2023-06-09T23:29:10.484Z,30.17
2023-06-09T23:32:13.893Z,25.98
2023-06-09T23:35:18.305Z,26.52
2023-06-09T23:38:21.932Z,24.73
2023-06-09T23:41:27.069Z,22.50
2023-06-09T23:44:29.944Z,21.23
2023-06-09T23:47:32.930Z,22.45
2023-06-09T23:50:36.281Z,23.73
2023-06-09T23:53:40.503Z,22.50
2023-06-09T23:56:45.853Z,25.60
2023-06-09T23:59:49.088Z,21.20
